createdAt,value
2023-03-12T00:02:10.444Z,99187.09
2023-03-12T00:04:43.144Z,99188.44
2023-03-12T00:07:15.128Z,99191.13
2023-03-12T00:09:47.059Z,99191.28
2023-03-12T00:12:19.065Z,99199.23
2023-03-12T00:14:49.732Z,99197.50
2023-03-12T00:17:21.656Z,99194.44
2023-03-12T00:19:55.653Z,99192.61
2023-03-12T00:22:27.675Z,99184.86
2023-03-12T00:25:00.124Z,99186.48
2023-03-12T00:27:32.254Z,99182.29
2023-03-12T00:30:04.901Z,99180.52
2023-03-12T00:32:37.178Z,99178.92
2023-03-12T00:35:10.483Z,99177.91
2023-03-12T00:37:42.586Z,99181.50
2023-03-12T00:40:15.892Z,99179.35
2023-03-12T00:42:47.891Z,99177.35
2023-03-12T00:45:20.071Z,99176.52
2023-03-12T00:47:52.558Z,99173.45
2023-03-12T00:50:24.661Z,99172.80
2023-03-12T00:52:56.630Z,99171.36
2023-03-12T00:55:28.725Z,99172.90
2023-03-12T00:58:00.794Z,99176.66
2023-03-12T01:00:31.835Z,99177.73
2023-03-12T01:03:03.948Z,99181.84
2023-03-12T01:05:37.868Z,99181.69
2023-03-12T01:08:11.410Z,99183.64
2023-03-12T01:10:45.333Z,99194.39
2023-03-12T01:13:17.795Z,99199.27
2023-03-12T01:15:49.962Z,99198.37
2023-03-12T01:18:21.980Z,99203.23
2023-03-12T01:20:54.238Z,99200.94
2023-03-12T01:23:27.314Z,99199.36
2023-03-12T01:25:59.552Z,99197.09
2023-03-12T01:28:30.101Z,99189.46
2023-03-12T01:31:09.445Z,99188.66
2023-03-12T01:33:41.700Z,99189.18
2023-03-12T01:36:17.733Z,99191.29
2023-03-12T01:38:51.642Z,99192.77
2023-03-12T01:41:24.101Z,99192.50
2023-03-12T01:43:56.283Z,99195.17
2023-03-12T01:46:35.290Z,99196.25
2023-03-12T01:49:14.947Z,99204.40
2023-03-12T01:51:51.157Z,99204.83
2023-03-12T01:54:28.505Z,99209.40
2023-03-12T01:57:01.856Z,99214.34
2023-03-12T01:59:38.598Z,99214.39
2023-03-12T02:02:11.380Z,99216.34
2023-03-12T02:04:45.974Z,99215.34
2023-03-12T02:07:18.751Z,99215.06
2023-03-12T02:09:52.050Z,99221.23
2023-03-12T02:12:24.073Z,99217.29
2023-03-12T02:14:56.130Z,99222.42
2023-03-12T02:17:28.038Z,99216.70
2023-03-12T02:20:11.096Z,99217.95
2023-03-12T02:22:48.338Z,99220.56
2023-03-12T02:25:32.126Z,99219.05
2023-03-12T02:28:07.983Z,99225.03
2023-03-12T02:30:43.684Z,99229.05
2023-03-12T02:33:16.282Z,99228.71
2023-03-12T02:35:50.075Z,99232.75
2023-03-12T02:38:37.697Z,99242.66
2023-03-12T02:41:15.433Z,99246.72
2023-03-12T02:43:50.761Z,99252.52
2023-03-12T02:46:23.218Z,99253.11
2023-03-12T02:48:56.878Z,99260.63
2023-03-12T02:51:28.873Z,99256.82
2023-03-12T02:54:00.805Z,99258.73
2023-03-12T02:56:31.679Z,99261.04
2023-03-12T02:59:04.619Z,99260.78
2023-03-12T03:01:37.563Z,99264.48
2023-03-12T03:04:12.407Z,99265.70
2023-03-12T03:06:47.751Z,99267.84
2023-03-12T03:09:22.276Z,99272.91
2023-03-12T03:11:55.206Z,99273.58
2023-03-12T03:14:27.679Z,99274.48
2023-03-12T03:17:00.567Z,99277.98
2023-03-12T03:19:32.519Z,99277.64
2023-03-12T03:22:05.478Z,99276.77
2023-03-12T03:24:37.377Z,99276.34
2023-03-12T03:27:09.417Z,99279.56
2023-03-12T03:31:55.055Z,99280.96
2023-03-12T03:34:23.999Z,99286.61
2023-03-12T03:36:52.827Z,99287.05
2023-03-12T03:39:21.654Z,99283.57
2023-03-12T03:41:51.490Z,99282.72
2023-03-12T03:44:22.524Z,99286.73
2023-03-12T03:46:52.933Z,99286.10
2023-03-12T03:49:22.148Z,99288.56
2023-03-12T03:51:51.495Z,99289.52
2023-03-12T03:54:24.260Z,99292.77
2023-03-12T03:56:53.180Z,99297.87
2023-03-12T03:59:21.889Z,99301.40
2023-03-12T04:01:50.712Z,99304.71
2023-03-12T04:04:19.767Z,99305.91
2023-03-12T04:06:48.594Z,99305.70
2023-03-12T04:09:17.435Z,99304.10
2023-03-12T04:11:46.431Z,99300.07
2023-03-12T04:14:15.218Z,99302.50
2023-03-12T04:16:46.055Z,99299.48
2023-03-12T04:19:14.908Z,99294.71
2023-03-12T04:21:43.694Z,99296.94
2023-03-12T04:24:17.032Z,99297.64
2023-03-12T04:26:45.288Z,99296.10
2023-03-12T04:29:15.188Z,99298.89
2023-03-12T04:31:44.333Z,99298.39
2023-03-12T04:34:14.574Z,99303.27
2023-03-12T04:36:44.371Z,99305.63
2023-03-12T04:39:13.177Z,99303.77
2023-03-12T04:41:42.106Z,99309.19
2023-03-12T04:44:14.027Z,99313.36
2023-03-12T04:46:43.610Z,99313.89
2023-03-12T04:49:14.874Z,99315.11
2023-03-12T04:51:43.813Z,99317.52
2023-03-12T04:54:12.605Z,99317.65
2023-03-12T04:56:42.177Z,99320.05
2023-03-12T04:59:10.842Z,99320.69
2023-03-12T05:01:39.806Z,99323.44
2023-03-12T05:04:13.328Z,99327.78
2023-03-12T05:06:42.056Z,99330.91
2023-03-12T05:09:10.838Z,99335.61
2023-03-12T05:11:40.032Z,99338.42
2023-03-12T05:14:10.546Z,99341.73
2023-03-12T05:16:39.622Z,99344.14
2023-03-12T05:19:08.649Z,99348.09
2023-03-12T05:21:39.625Z,99353.39
2023-03-12T05:24:09.083Z,99355.56
2023-03-12T05:26:38.829Z,99360.98
2023-03-12T05:29:12.871Z,99360.16
2023-03-12T05:31:41.753Z,99362.13
2023-03-12T05:34:12.202Z,99362.34
2023-03-12T05:36:41.492Z,99367.98
2023-03-12T05:39:10.295Z,99365.33
2023-03-12T05:41:39.271Z,99369.38
2023-03-12T05:44:15.386Z,99369.66
2023-03-12T05:46:45.442Z,99370.12
2023-03-12T05:49:14.159Z,99376.19
2023-03-12T05:51:43.203Z,99378.70
2023-03-12T05:54:12.061Z,99380.77
2023-03-12T05:56:40.983Z,99384.08
2023-03-12T05:59:10.337Z,99387.36
2023-03-12T06:01:50.808Z,99387.69
2023-03-12T06:04:35.352Z,99386.79
2023-03-12T06:07:17.627Z,99388.44
2023-03-12T06:09:46.474Z,99393.19
2023-03-12T06:12:33.008Z,99394.95
2023-03-12T06:15:04.477Z,99402.38
2023-03-12T06:17:33.980Z,99403.23
2023-03-12T06:20:05.501Z,99409.02
2023-03-12T06:22:35.199Z,99415.70
2023-03-12T06:25:05.090Z,99419.72
2023-03-12T06:27:34.020Z,99418.20
2023-03-12T06:30:03.105Z,99425.02
2023-03-12T06:32:32.194Z,99424.64
2023-03-12T06:35:02.029Z,99421.67
2023-03-12T06:37:31.511Z,99423.67
2023-03-12T06:40:04.121Z,99418.18
2023-03-12T06:42:40.498Z,99418.80
2023-03-12T06:45:19.354Z,99418.81
2023-03-12T06:47:53.559Z,99415.54
2023-03-12T06:50:23.472Z,99420.63
2023-03-12T06:53:06.915Z,99424.45
2023-03-12T06:55:39.999Z,99424.95
2023-03-12T06:58:08.943Z,99421.61
2023-03-12T07:01:07.502Z,99424.79
2023-03-12T07:03:53.522Z,99422.77
2023-03-12T07:06:31.643Z,99428.21
2023-03-12T07:09:13.249Z,99426.46
2023-03-12T07:11:44.831Z,99429.23
2023-03-12T07:14:14.577Z,99426.78
2023-03-12T07:16:43.405Z,99425.73
2023-03-12T07:19:20.557Z,99424.05
2023-03-12T07:21:54.617Z,99426.98
2023-03-12T07:24:28.178Z,99425.48
2023-03-12T07:27:01.584Z,99418.84
2023-03-12T07:29:31.739Z,99415.80
2023-03-12T07:32:05.706Z,99425.14
2023-03-12T07:34:34.777Z,99420.58
2023-03-12T07:37:05.802Z,99419.25
2023-03-12T07:39:37.628Z,99416.65
2023-03-12T07:42:13.191Z,99421.87
2023-03-12T07:44:43.950Z,99423.42
2023-03-12T07:47:23.285Z,99423.11
2023-03-12T07:49:54.424Z,99425.40
2023-03-12T07:52:23.502Z,99423.71
2023-03-12T07:54:55.977Z,99421.02
2023-03-12T07:57:27.145Z,99425.68
2023-03-12T07:59:56.619Z,99425.27
2023-03-12T08:02:51.421Z,99426.00
2023-03-12T08:05:24.134Z,99424.56
2023-03-12T08:07:53.714Z,99424.26
2023-03-12T08:10:22.894Z,99424.08
2023-03-12T08:12:52.047Z,99425.94
2023-03-12T08:15:21.057Z,99430.77
2023-03-12T08:17:49.779Z,99430.61
2023-03-12T08:20:19.440Z,99430.90
2023-03-12T08:22:48.550Z,99435.66
2023-03-12T08:25:20.384Z,99442.48
2023-03-12T08:27:49.085Z,99440.61
2023-03-12T08:30:18.546Z,99441.85
2023-03-12T08:32:47.199Z,99438.60
2023-03-12T08:35:16.367Z,99437.26
2023-03-12T08:37:45.317Z,99441.75
2023-03-12T08:40:14.544Z,99446.96
2023-03-12T08:42:45.007Z,99450.64
2023-03-12T08:45:15.125Z,99458.22
2023-03-12T08:47:44.363Z,99459.38
2023-03-12T08:50:15.911Z,99462.00
2023-03-12T08:52:45.267Z,99467.86
2023-03-12T08:55:14.706Z,99470.41
2023-03-12T08:57:43.471Z,99473.92
2023-03-12T09:00:15.620Z,99474.82
2023-03-12T09:02:45.084Z,99473.64
2023-03-12T09:05:13.881Z,99476.25
2023-03-12T09:07:42.670Z,99475.09
2023-03-12T09:10:12.121Z,99473.52
2023-03-12T09:12:40.838Z,99473.83
2023-03-12T09:15:10.708Z,99471.07
2023-03-12T09:17:39.794Z,99471.63
2023-03-12T09:20:13.345Z,99471.58
2023-03-12T09:22:42.562Z,99474.96
2023-03-12T09:25:12.984Z,99473.45
2023-03-12T09:27:43.771Z,99468.78
2023-03-12T09:30:15.571Z,99470.41
2023-03-12T09:32:45.121Z,99470.52
2023-03-12T09:35:15.653Z,99467.44
2023-03-12T09:37:49.218Z,99465.45
2023-03-12T09:40:21.286Z,99466.61
2023-03-12T09:42:52.382Z,99463.89
2023-03-12T09:45:24.539Z,99463.40
2023-03-12T09:47:53.829Z,99468.71
2023-03-12T09:50:26.932Z,99470.06
2023-03-12T09:53:00.742Z,99472.73
2023-03-12T09:55:36.078Z,99471.00
2023-03-12T09:58:12.718Z,99470.85
2023-03-12T10:00:41.548Z,99469.15
2023-03-12T10:03:28.240Z,99462.39
2023-03-12T10:06:08.498Z,99461.73
2023-03-12T10:08:48.580Z,99464.46
2023-03-12T10:11:30.223Z,99460.77
2023-03-12T10:14:23.031Z,99455.92
2023-03-12T10:17:04.139Z,99456.91
2023-03-12T10:19:45.750Z,99457.06
2023-03-12T10:22:32.599Z,99452.98
2023-03-12T10:25:14.374Z,99458.17
2023-03-12T10:27:43.337Z,99459.88
2023-03-12T10:30:18.321Z,99459.73
2023-03-12T10:32:50.503Z,99458.35
2023-03-12T10:35:22.088Z,99458.48
2023-03-12T10:37:54.091Z,99461.20
2023-03-12T10:40:23.303Z,99460.70
2023-03-12T10:42:52.916Z,99454.81
2023-03-12T10:45:32.415Z,99458.13
2023-03-12T10:48:06.507Z,99459.71
2023-03-12T10:50:37.409Z,99465.20
2023-03-12T10:53:22.538Z,99461.80
2023-03-12T10:56:05.816Z,99457.89
2023-03-12T10:58:38.342Z,99459.23
2023-03-12T11:01:19.313Z,99451.98
2023-03-12T11:03:49.522Z,99451.59
2023-03-12T11:06:23.429Z,99450.00
2023-03-12T11:09:21.916Z,99455.61
2023-03-12T11:11:54.105Z,99458.73
2023-03-12T11:14:27.005Z,99461.48
2023-03-12T11:16:57.047Z,99467.33
2023-03-12T11:19:30.708Z,99465.02
2023-03-12T11:22:00.907Z,99460.62
2023-03-12T11:24:30.086Z,99455.86
2023-03-12T11:27:04.154Z,99452.85
2023-03-12T11:29:39.664Z,99451.58
2023-03-12T11:32:18.054Z,99455.73
2023-03-12T11:34:48.848Z,99459.32
2023-03-12T11:37:26.929Z,99456.55
2023-03-12T11:40:12.397Z,99452.95
2023-03-12T11:42:53.326Z,99455.62
2023-03-12T11:45:29.668Z,99455.13
2023-03-12T11:48:10.852Z,99460.45
2023-03-12T11:50:55.477Z,99457.61
2023-03-12T11:53:43.856Z,99449.92
2023-03-12T11:56:24.064Z,99451.23
2023-03-12T11:59:13.450Z,99445.08
2023-03-12T12:01:55.740Z,99439.20
2023-03-12T12:04:55.957Z,99440.95
2023-03-12T12:07:39.580Z,99438.87
2023-03-12T12:10:20.708Z,99434.56
2023-03-12T12:12:59.508Z,99435.45
2023-03-12T12:15:38.372Z,99426.58
2023-03-12T12:18:26.046Z,99422.76
2023-03-12T12:21:00.830Z,99426.00
2023-03-12T12:23:45.082Z,99433.08
2023-03-12T12:26:19.256Z,99431.20
2023-03-12T12:28:59.321Z,99428.17
2023-03-12T12:31:37.992Z,99419.94
2023-03-12T12:34:37.941Z,99421.14
2023-03-12T12:37:21.722Z,99418.02
2023-03-12T12:39:59.872Z,99414.74
2023-03-12T12:42:36.348Z,99416.09
2023-03-12T12:45:12.348Z,99413.00
2023-03-12T12:47:46.382Z,99413.42
2023-03-12T12:50:19.790Z,99411.95
2023-03-12T12:52:53.345Z,99420.36
2023-03-12T12:55:28.273Z,99418.39
2023-03-12T12:58:01.086Z,99420.34
2023-03-12T13:00:48.754Z,99417.86
2023-03-12T13:03:19.380Z,99423.75
2023-03-12T13:05:55.317Z,99424.92
2023-03-12T13:08:36.546Z,99424.65
2023-03-12T13:11:22.271Z,99420.68
2023-03-12T13:14:11.897Z,99426.09
2023-03-12T13:16:42.413Z,99426.59
2023-03-12T13:19:25.670Z,99427.13
2023-03-12T13:22:06.104Z,99422.09
2023-03-12T13:24:41.276Z,99424.92
2023-03-12T13:27:17.955Z,99421.38
2023-03-12T13:29:47.029Z,99420.28
2023-03-12T13:33:01.163Z,99421.11
2023-03-12T13:35:36.348Z,99422.14
2023-03-12T13:38:11.763Z,99421.06
2023-03-12T13:41:06.096Z,99418.91
2023-03-12T13:43:50.719Z,99424.14
2023-03-12T13:46:29.745Z,99422.41
2023-03-12T13:49:03.602Z,99419.05
2023-03-12T13:51:32.784Z,99413.86
2023-03-12T13:54:03.698Z,99413.01
2023-03-12T13:56:33.839Z,99412.88
2023-03-12T13:59:04.638Z,99417.81
2023-03-12T14:01:40.555Z,99417.64
2023-03-12T14:04:17.390Z,99412.19
2023-03-12T14:07:03.123Z,99412.55
2023-03-12T14:09:42.614Z,99411.41
2023-03-12T14:12:16.577Z,99407.80
2023-03-12T14:15:02.968Z,99409.73
2023-03-12T14:17:34.188Z,99415.29
2023-03-12T14:20:06.633Z,99421.70
2023-03-12T14:22:38.668Z,99421.08
2023-03-12T14:25:16.112Z,99412.54
2023-03-12T14:27:47.602Z,99411.27
2023-03-12T14:30:22.417Z,99418.65
2023-03-12T14:32:55.965Z,99420.63
2023-03-12T14:35:28.871Z,99419.19
2023-03-12T14:38:03.052Z,99417.39
2023-03-12T14:40:38.354Z,99413.50
2023-03-12T14:43:22.449Z,99407.27
2023-03-12T14:45:53.825Z,99413.36
2023-03-12T14:48:27.228Z,99408.28
2023-03-12T14:50:57.660Z,99408.58
2023-03-12T14:53:30.041Z,99404.94
2023-03-12T14:56:02.174Z,99401.34
2023-03-12T14:58:31.730Z,99400.33
2023-03-12T15:01:03.713Z,99399.09
2023-03-12T15:03:43.324Z,99395.55
2023-03-12T15:06:24.546Z,99395.27
2023-03-12T15:08:53.784Z,99393.54
2023-03-12T15:11:25.372Z,99391.67
2023-03-12T15:13:56.053Z,99388.70
2023-03-12T15:16:24.855Z,99387.33
2023-03-12T15:18:53.815Z,99384.05
2023-03-12T15:21:22.931Z,99383.83
2023-03-12T15:23:51.988Z,99385.27
2023-03-12T15:26:29.904Z,99385.11
2023-03-12T15:29:18.054Z,99381.55
2023-03-12T15:31:48.732Z,99375.32
2023-03-12T15:34:31.368Z,99368.45
2023-03-12T15:37:01.337Z,99372.62
2023-03-12T15:39:32.432Z,99373.90
2023-03-12T15:42:07.523Z,99379.20
2023-03-12T15:44:44.854Z,99379.42
2023-03-12T15:47:18.121Z,99376.73
2023-03-12T15:49:53.039Z,99380.66
2023-03-12T15:52:31.722Z,99379.54
2023-03-12T15:55:08.589Z,99379.38
2023-03-12T15:57:47.956Z,99382.11
2023-03-12T16:00:28.875Z,99378.23
2023-03-12T16:02:59.612Z,99378.79
2023-03-12T16:05:33.800Z,99385.70
2023-03-12T16:08:12.609Z,99387.98
2023-03-12T16:10:43.719Z,99394.15
2023-03-12T16:13:15.554Z,99392.84
2023-03-12T16:15:46.713Z,99387.42
2023-03-12T16:18:19.253Z,99385.30
2023-03-12T16:20:49.549Z,99378.17
2023-03-12T16:23:20.465Z,99377.80
2023-03-12T16:25:52.727Z,99374.76
2023-03-12T16:28:23.050Z,99372.85
2023-03-12T16:30:54.270Z,99371.24
2023-03-12T16:33:24.554Z,99366.24
2023-03-12T16:35:53.305Z,99370.45
2023-03-12T16:38:22.220Z,99368.42
2023-03-12T16:40:51.833Z,99358.65
2023-03-12T16:43:28.495Z,99342.36
2023-03-12T16:45:59.074Z,99330.15
2023-03-12T16:48:28.223Z,99321.04
2023-03-12T16:50:57.880Z,99324.20
2023-03-12T16:53:27.766Z,99331.47
2023-03-12T16:55:59.880Z,99324.57
2023-03-12T16:58:29.514Z,99324.05
2023-03-12T17:01:00.345Z,99328.56
2023-03-12T17:03:36.108Z,99338.07
2023-03-12T17:06:12.934Z,99347.88
2023-03-12T17:08:42.406Z,99364.21
2023-03-12T17:11:22.840Z,99364.42
2023-03-12T17:13:55.479Z,99346.27
2023-03-12T17:16:24.701Z,99336.31
2023-03-12T17:18:53.756Z,99336.62
2023-03-12T17:21:23.012Z,99329.77
2023-03-12T17:23:51.796Z,99326.67
2023-03-12T17:26:20.620Z,99324.63
2023-03-12T17:28:50.464Z,99323.14
2023-03-12T17:31:21.196Z,99328.23
2023-03-12T17:33:50.480Z,99340.11
2023-03-12T17:36:21.646Z,99342.80
2023-03-12T17:38:51.011Z,99338.27
2023-03-12T17:41:26.454Z,99338.05
2023-03-12T17:44:00.875Z,99342.48
2023-03-12T17:46:30.119Z,99339.41
2023-03-12T17:48:59.303Z,99347.97
2023-03-12T17:51:29.260Z,99350.89
2023-03-12T17:53:59.763Z,99354.14
2023-03-12T17:56:29.684Z,99353.05
2023-03-12T17:58:58.490Z,99358.95
2023-03-12T18:01:28.221Z,99364.53
2023-03-12T18:03:57.089Z,99365.78
2023-03-12T18:06:26.739Z,99357.98
2023-03-12T18:08:58.552Z,99353.92
2023-03-12T18:11:27.963Z,99351.64
2023-03-12T18:13:57.065Z,99336.88
2023-03-12T18:16:26.056Z,99335.94
2023-03-12T18:18:54.848Z,99336.73
2023-03-12T18:21:24.427Z,99334.94
2023-03-12T18:23:55.791Z,99342.73
2023-03-12T18:26:28.032Z,99349.57
2023-03-12T18:28:57.664Z,99346.64
2023-03-12T18:31:27.205Z,99331.16
2023-03-12T18:33:56.393Z,99326.85
2023-03-12T18:36:25.603Z,99331.62
2023-03-12T18:38:54.320Z,99338.70
2023-03-12T18:41:28.137Z,99346.12
2023-03-12T18:43:57.839Z,99339.61
2023-03-12T18:46:29.145Z,99333.64
2023-03-12T18:49:02.869Z,99334.39
2023-03-12T18:51:31.944Z,99330.59
2023-03-12T18:54:01.750Z,99318.39
2023-03-12T18:56:30.908Z,99312.50
2023-03-12T18:58:59.602Z,99310.36
2023-03-12T19:01:29.688Z,99313.86
2023-03-12T19:04:00.891Z,99319.80
2023-03-12T19:06:37.894Z,99319.32
2023-03-12T19:09:16.914Z,99320.13
2023-03-12T19:11:47.741Z,99313.10
2023-03-12T19:14:17.495Z,99316.08
2023-03-12T19:16:47.531Z,99315.05
2023-03-12T19:19:16.804Z,99315.20
2023-03-12T19:21:45.492Z,99313.48
2023-03-12T19:24:14.285Z,99309.11
2023-03-12T19:26:43.306Z,99309.36
2023-03-12T19:29:15.875Z,99307.34
2023-03-12T19:31:44.694Z,99307.40
2023-03-12T19:34:14.111Z,99308.14
2023-03-12T19:36:43.689Z,99304.61
2023-03-12T19:39:21.087Z,99298.81
2023-03-12T19:41:50.844Z,99300.54
2023-03-12T19:44:21.807Z,99291.24
2023-03-12T19:46:50.671Z,99281.40
2023-03-12T19:49:19.732Z,99274.66
2023-03-12T19:51:48.763Z,99263.48
2023-03-12T19:54:17.871Z,99259.01
2023-03-12T19:56:46.741Z,99251.71
2023-03-12T19:59:16.519Z,99246.39
2023-03-12T20:01:45.103Z,99234.82
2023-03-12T20:04:14.135Z,99228.75
2023-03-12T20:06:42.861Z,99229.67
2023-03-12T20:09:11.835Z,99229.56
2023-03-12T20:11:40.982Z,99225.34
2023-03-12T20:14:09.778Z,99222.31
2023-03-12T20:16:38.759Z,99224.77
2023-03-12T20:19:08.142Z,99224.01
2023-03-12T20:21:36.773Z,99229.39
2023-03-12T20:24:06.466Z,99228.91
2023-03-12T20:26:38.784Z,99226.12
2023-03-12T20:29:07.657Z,99230.69
2023-03-12T20:31:36.513Z,99231.15
2023-03-12T20:34:05.213Z,99228.23
2023-03-12T20:36:34.024Z,99233.88
2023-03-12T20:39:02.886Z,99232.35
2023-03-12T20:41:31.700Z,99233.48
2023-03-12T20:44:00.767Z,99228.83
2023-03-12T20:46:29.745Z,99226.50
2023-03-12T20:48:58.362Z,99230.20
2023-03-12T20:51:27.037Z,99232.56
2023-03-12T20:53:56.283Z,99231.20
2023-03-12T20:56:24.889Z,99230.32
2023-03-12T20:58:53.551Z,99225.86
2023-03-12T21:01:22.305Z,99221.11
2023-03-12T21:03:51.089Z,99222.91
2023-03-12T21:06:19.713Z,99226.62
2023-03-12T21:08:48.470Z,99228.77
2023-03-12T21:11:17.096Z,99230.02
2023-03-12T21:13:45.825Z,99228.69
2023-03-12T21:16:14.413Z,99228.27
2023-03-12T21:18:43.010Z,99228.04
2023-03-12T21:21:12.086Z,99233.20
2023-03-12T21:23:40.833Z,99232.73
2023-03-12T21:26:11.341Z,99228.42
2023-03-12T21:28:40.011Z,99225.38
2023-03-12T21:31:10.866Z,99227.48
2023-03-12T21:33:39.764Z,99228.61
2023-03-12T21:36:11.427Z,99225.55
2023-03-12T21:38:42.102Z,99221.79
2023-03-12T21:41:12.071Z,99226.45
2023-03-12T21:43:41.601Z,99224.44
2023-03-12T21:46:12.095Z,99224.23
2023-03-12T21:48:42.916Z,99217.07
2023-03-12T21:51:12.970Z,99219.84
2023-03-12T21:53:41.878Z,99216.42
2023-03-12T21:56:11.572Z,99212.04
2023-03-12T21:58:40.221Z,99205.10
2023-03-12T22:01:11.139Z,99205.73
2023-03-12T22:03:40.938Z,99207.83
2023-03-12T22:06:10.829Z,99213.33
2023-03-12T22:08:39.796Z,99210.66
2023-03-12T22:11:09.406Z,99207.01
2023-03-12T22:13:38.218Z,99208.25
2023-03-12T22:16:08.525Z,99215.48
2023-03-12T22:18:42.917Z,99210.14
2023-03-12T22:21:15.778Z,99213.95
2023-03-12T22:23:47.019Z,99215.11
2023-03-12T22:26:15.822Z,99214.04
2023-03-12T22:28:50.094Z,99218.23
2023-03-12T22:31:20.158Z,99218.65
2023-03-12T22:33:48.912Z,99210.55
2023-03-12T22:36:18.515Z,99210.24
2023-03-12T22:38:47.569Z,99209.87
2023-03-12T22:41:18.480Z,99206.41
2023-03-12T22:43:48.366Z,99201.84
2023-03-12T22:46:20.762Z,99197.96
2023-03-12T22:48:53.701Z,99210.70
2023-03-12T22:51:22.938Z,99211.91
2023-03-12T22:53:51.836Z,99212.09
2023-03-12T22:56:20.922Z,99207.95
2023-03-12T22:58:49.993Z,99194.55
2023-03-12T23:01:20.670Z,99196.65
2023-03-12T23:03:49.904Z,99205.02
2023-03-12T23:06:20.944Z,99214.11
2023-03-12T23:08:49.953Z,99211.97
2023-03-12T23:11:20.179Z,99204.46
2023-03-12T23:13:49.149Z,99211.36
2023-03-12T23:16:19.689Z,99210.48
2023-03-12T23:18:49.208Z,99211.15
2023-03-12T23:21:19.833Z,99209.23
2023-03-12T23:23:49.568Z,99216.05
2023-03-12T23:26:19.869Z,99213.41
2023-03-12T23:28:50.584Z,99208.27
2023-03-12T23:31:21.970Z,99206.73
2023-03-12T23:33:50.790Z,99209.12
2023-03-12T23:36:21.966Z,99209.44
2023-03-12T23:38:51.448Z,99205.17
2023-03-12T23:41:21.545Z,99207.20
2023-03-12T23:43:50.403Z,99207.30
2023-03-12T23:46:19.453Z,99197.94
2023-03-12T23:48:48.561Z,99191.02
2023-03-12T23:51:19.012Z,99187.94
2023-03-12T23:53:48.942Z,99183.34
2023-03-12T23:56:20.058Z,99177.16
2023-03-12T23:58:50.047Z,99184.54
